Argonia, Kansas
Current Conditions -  °F | °C
As of 3:53 PM on Monday 20 Oct 2014 (Local Time) from KICT Reporting Station
Clear Clear  
Wind Chill: 81°   Ceiling: Unl
Heat Index: 81°   Visibility: 10mi
Dew Point: 43°   Wind: 10mph
Humidity: 26%   Direction: 50°NE
Pressure: 30.02"   Gusts: NA
Location:  37.27°N, 97.77°W
Report Text: KICT 202053Z 05009KT 10SM CLR 27/06 A3002 RMK AO2 SLP157 T02720061 56014
Loading
Personal Weather Stations






























Interactive Weather Map
Tropical Storm Tracking
New forecast layout! Learn more

10-Day Weather Forecast

Advertisements
Track Severe Weather on mobile